Time;durP1;ratioP1;P1;durP2;ratioP2;P2;SDS_P1;SDS_P2;PMS_P1;PMS_P2;Temp;Humidity;BMP_temperature;BMP_pressure;BME280_temperature;BME280_humidity;BME280_pressure;Samples;Min_cycle;Max_cycle;Signal;HPM_P1;HPM_P2
2023/12/01 00:00:56;;;;;;;10.20;6.50;;;;;;;10.06;100.00;100012.17;108025;1286;21985;-64
2023/12/01 00:03:21;;;;;;;11.20;7.00;;;;;;;10.08;100.00;100001.45;108200;1286;21993;-65
2023/12/01 00:05:47;;;;;;;12.90;7.00;;;;;;;10.12;100.00;99997.89;108105;1274;21991;-65
2023/12/01 14:32:31;;;;;;;9.00;4.70;;;;;;;10.25;100.00;99361.61;107409;1291;549339;-59
2023/12/01 14:34:59;;;;;;;6.50;4.50;;;;;;;12.61;100.00;99334.17;107824;1293;21986;-60
2023/12/01 14:37:25;;;;;;;7.90;4.60;;;;;;;12.98;100.00;99331.21;107729;1287;21993;-60
2023/12/01 14:39:50;;;;;;;23.10;12.40;;;;;;;13.21;100.00;99342.98;107693;1295;22463;-62
2023/12/01 14:42:18;;;;;;;17.70;10.20;;;;;;;13.37;100.00;99348.39;107693;1294;22461;-63
2023/12/01 14:44:44;;;;;;;25.80;12.60;;;;;;;13.51;100.00;99362.48;107252;1292;189034;-60
2023/12/01 14:47:10;;;;;;;16.00;8.20;;;;;;;13.60;100.00;99370.02;107775;1292;21994;-60
2023/12/01 14:49:36;;;;;;;23.20;11.60;;;;;;;13.70;100.00;99369.98;107788;1292;22001;-63
2023/12/01 14:52:02;;;;;;;13.40;6.30;;;;;;;13.77;100.00;99378.49;107818;1292;21991;-62
2023/12/01 14:54:28;;;;;;;57.70;28.40;;;;;;;13.82;100.00;99388.51;107790;1292;22002;-60
2023/12/01 14:56:54;;;;;;;20.70;9.10;;;;;;;13.84;100.00;99379.61;107798;1292;22029;-62
2023/12/01 14:59:19;;;;;;;17.30;9.30;;;;;;;13.86;100.00;99374.78;107795;1292;22191;-60
2023/12/01 15:01:49;;;;;;;33.90;16.30;;;;;;;13.89;100.00;99384.19;107804;1290;21993;-60
2023/12/01 15:04:16;;;;;;;21.60;11.80;;;;;;;13.90;100.00;99398.94;107973;1292;21992;-60
2023/12/01 15:06:42;;;;;;;14.70;8.60;;;;;;;13.92;100.00;99407.14;108031;1290;21996;-60
2023/12/01 15:09:10;;;;;;;15.10;6.50;;;;;;;13.91;100.00;99411.96;107757;1292;21998;-60
2023/12/01 15:11:36;;;;;;;32.60;18.10;;;;;;;13.88;100.00;99403.80;107838;1292;21992;-60
2023/12/01 15:14:02;;;;;;;40.40;21.00;;;;;;;13.85;100.00;99377.98;107807;1292;21988;-60
2023/12/01 15:16:28;;;;;;;42.60;25.90;;;;;;;13.84;100.00;99384.73;107781;1283;22002;-60
2023/12/01 15:18:53;;;;;;;23.30;13.80;;;;;;;13.81;100.00;99388.74;107764;1292;22029;-60
2023/12/01 15:21:19;;;;;;;21.30;13.10;;;;;;;13.78;100.00;99382.31;107750;1292;21976;-60
2023/12/01 15:23:45;;;;;;;13.80;7.90;;;;;;;13.78;100.00;99397.69;107774;1292;22013;-60
2023/12/01 15:26:14;;;;;;;12.90;6.80;;;;;;;13.75;100.00;99410.85;107767;1292;21992;-59
2023/12/01 15:28:40;;;;;;;35.50;20.50;;;;;;;13.71;100.00;99419.98;107782;1286;22185;-60
2023/12/01 15:31:07;;;;;;;51.90;29.80;;;;;;;13.69;100.00;99419.54;107820;1292;21988;-60
2023/12/01 15:33:33;;;;;;;27.90;16.90;;;;;;;13.63;100.00;99416.61;107812;1292;21995;-60
2023/12/01 15:35:58;;;;;;;14.00;8.10;;;;;;;13.63;100.00;99412.90;107782;1292;22019;-60
2023/12/01 15:38:25;;;;;;;21.20;12.50;;;;;;;13.69;100.00;99405.83;107814;1292;22183;-61
2023/12/01 15:40:51;;;;;;;21.90;12.20;;;;;;;13.67;100.00;99401.80;107785;1290;21990;-62
2023/12/01 15:43:16;;;;;;;16.40;10.30;;;;;;;13.63;100.00;99398.11;107831;1292;22007;-61
2023/12/01 15:45:42;;;;;;;18.60;10.30;;;;;;;13.59;100.00;99398.60;107788;1292;21990;-60
2023/12/01 15:48:11;;;;;;;17.20;10.30;;;;;;;13.57;100.00;99402.92;107806;1292;22308;-61
2023/12/01 15:50:38;;;;;;;26.20;15.20;;;;;;;13.54;100.00;99399.70;107988;1292;21996;-60
2023/12/01 15:53:04;;;;;;;38.70;24.30;;;;;;;13.49;100.00;99404.14;107877;1292;21992;-60
2023/12/01 15:55:30;;;;;;;34.20;19.20;;;;;;;13.44;100.00;99401.52;107796;1292;21996;-62
2023/12/01 15:57:56;;;;;;;32.70;18.70;;;;;;;13.36;100.00;99401.95;107822;1292;21978;-60
2023/12/01 16:00:21;;;;;;;24.80;14.10;;;;;;;13.29;100.00;99402.59;107788;1292;23663;-62
2023/12/01 16:02:47;;;;;;;23.80;14.00;;;;;;;13.23;100.00;99404.21;107804;1292;22034;-62
2023/12/01 16:05:13;;;;;;;23.10;13.10;;;;;;;13.19;100.00;99401.38;107856;1292;21996;-60
2023/12/01 16:07:39;;;;;;;22.60;13.30;;;;;;;13.18;100.00;99406.20;107777;1292;21995;-61
2023/12/01 16:10:06;;;;;;;18.40;11.00;;;;;;;13.16;100.00;99407.83;107811;1287;21992;-62
2023/12/01 16:12:32;;;;;;;27.00;14.30;;;;;;;13.16;100.00;99409.77;107853;1288;23075;-60
2023/12/01 16:14:57;;;;;;;24.50;14.70;;;;;;;13.17;100.00;99407.46;107806;1291;22014;-62
2023/12/01 16:17:26;;;;;;;24.90;13.90;;;;;;;13.16;100.00;99407.83;107711;1291;21992;-60
2023/12/01 16:19:53;;;;;;;21.90;13.60;;;;;;;13.15;100.00;99405.94;107717;1291;21998;-59
2023/12/01 16:22:19;;;;;;;21.70;13.30;;;;;;;13.17;100.00;99402.15;107755;1291;21980;-61
2023/12/01 16:24:48;;;;;;;25.30;13.80;;;;;;;13.20;100.00;99398.53;107785;1283;21990;-61
2023/12/01 16:27:18;;;;;;;31.80;22.30;;;;;;;13.21;100.00;99395.67;107732;1284;21992;-62
2023/12/01 16:29:47;;;;;;;18.40;12.70;;;;;;;13.19;100.00;99398.91;107781;1291;21999;-62
2023/12/01 16:32:13;;;;;;;143.00;71.10;;;;;;;13.13;100.00;99395.98;107838;1291;21994;-61
2023/12/01 16:34:38;;;;;;;82.70;39.50;;;;;;;13.05;100.00;99380.96;107792;1286;22009;-60
2023/12/01 16:37:04;;;;;;;60.10;27.20;;;;;;;12.99;100.00;99377.14;107716;1291;21997;-62
2023/12/01 16:39:30;;;;;;;35.90;17.50;;;;;;;12.95;100.00;99378.16;107876;1291;22041;-63
2023/12/01 16:41:56;;;;;;;32.20;16.90;;;;;;;12.94;100.00;99379.98;107792;1291;23469;-62
2023/12/01 16:44:21;;;;;;;213.30;173.30;;;;;;;12.95;100.00;99380.66;107792;1291;22003;-60
2023/12/01 16:46:47;;;;;;;38.90;26.00;;;;;;;13.05;100.00;99380.08;107855;1291;21990;-62
2023/12/01 16:49:12;;;;;;;32.30;19.40;;;;;;;13.06;100.00;99387.26;107904;1291;21992;-62
2023/12/01 16:51:38;;;;;;;31.30;19.60;;;;;;;12.98;100.00;99403.41;107717;1291;22502;-62
2023/12/01 16:54:04;;;;;;;27.80;16.30;;;;;;;12.98;100.00;99399.91;107883;1291;21993;-63
2023/12/01 16:56:31;;;;;;;22.60;13.40;;;;;;;13.00;100.00;99406.01;107881;1291;21992;-61
2023/12/01 16:58:57;;;;;;;20.40;11.90;;;;;;;12.98;100.00;99410.45;107765;1290;22022;-62
2023/12/01 17:01:23;;;;;;;34.00;22.10;;;;;;;12.95;100.00;99393.84;107865;1291;21993;-61
2023/12/01 17:03:49;;;;;;;31.40;21.90;;;;;;;12.91;100.00;99385.33;107743;1291;22003;-60
2023/12/01 17:06:15;;;;;;;23.90;16.80;;;;;;;12.90;100.00;99377.80;107891;1291;22000;-60
2023/12/01 17:08:41;;;;;;;19.10;13.60;;;;;;;12.90;100.00;99361.11;107929;1291;22461;-62
2023/12/01 17:11:08;;;;;;;13.90;9.90;;;;;;;12.96;100.00;99367.56;107943;1291;21992;-59
2023/12/01 17:13:34;;;;;;;9.70;6.60;;;;;;;13.00;100.00;99369.52;107977;1292;21998;-59
2023/12/01 17:16:00;;;;;;;11.80;6.60;;;;;;;13.05;100.00;99370.94;107949;1291;23720;-60
2023/12/01 17:18:26;;;;;;;12.00;7.50;;;;;;;13.09;100.00;99375.88;107793;1291;23641;-60
2023/12/01 17:20:52;;;;;;;15.70;9.90;;;;;;;13.13;100.00;99371.66;107898;1281;23644;-61
2023/12/01 17:23:18;;;;;;;19.90;14.80;;;;;;;13.17;100.00;99379.64;107978;1291;23058;-61
2023/12/01 17:25:44;;;;;;;19.80;14.50;;;;;;;13.18;100.00;99372.88;107863;1291;23644;-62
2023/12/01 17:28:10;;;;;;;15.10;9.80;;;;;;;13.19;100.00;99371.98;107954;1291;21992;-62
2023/12/01 17:30:35;;;;;;;16.60;7.80;;;;;;;13.19;100.00;99371.45;107873;1291;22157;-62
2023/12/01 17:33:01;;;;;;;10.40;6.30;;;;;;;13.19;100.00;99366.49;107918;1291;23724;-62
2023/12/01 17:35:27;;;;;;;13.50;8.60;;;;;;;13.20;100.00;99360.31;107894;1291;23612;-63
2023/12/01 17:37:54;;;;;;;23.30;13.40;;;;;;;13.20;100.00;99364.52;107889;1291;23661;-61
2023/12/01 17:40:20;;;;;;;29.70;17.30;;;;;;;13.20;100.00;99368.59;107794;1292;23692;-60
2023/12/01 17:42:47;;;;;;;26.30;16.80;;;;;;;13.20;100.00;99372.30;107803;1291;23615;-61
2023/12/01 17:45:13;;;;;;;27.10;15.50;;;;;;;13.19;100.00;99368.98;107758;1290;23615;-61
2023/12/01 17:47:39;;;;;;;23.30;14.90;;;;;;;13.19;100.00;99381.84;107916;1290;23606;-62
2023/12/01 17:50:06;;;;;;;23.50;14.20;;;;;;;13.20;100.00;99379.87;107875;1291;22848;-60
2023/12/01 17:52:32;;;;;;;24.60;14.50;;;;;;;13.19;100.00;99371.95;107920;1291;23612;-60
2023/12/01 17:54:58;;;;;;;29.20;18.30;;;;;;;13.19;100.00;99373.73;109782;1289;21958;-63
2023/12/01 17:57:25;;;;;;;30.50;20.70;;;;;;;13.18;100.00;99385.59;108101;1290;22095;-61
2023/12/01 17:59:50;;;;;;;39.90;23.70;;;;;;;13.15;100.00;99395.39;108175;1291;21990;-60
2023/12/01 18:02:16;;;;;;;69.20;35.40;;;;;;;13.12;100.00;99403.77;107897;1291;22001;-60
2023/12/01 18:04:42;;;;;;;59.60;33.10;;;;;;;13.06;100.00;99399.92;107754;1291;22266;-60
2023/12/01 18:07:08;;;;;;;54.80;32.80;;;;;;;13.01;100.00;99397.31;107828;1291;21992;-62
2023/12/01 18:09:35;;;;;;;57.90;35.20;;;;;;;12.97;100.00;99396.23;107781;1289;24314;-61
2023/12/01 18:12:01;;;;;;;55.40;35.00;;;;;;;12.94;100.00;99402.86;107758;1291;21993;-60
2023/12/01 18:14:26;;;;;;;37.80;22.10;;;;;;;12.93;100.00;99409.23;107767;1287;22009;-61
2023/12/01 18:16:55;;;;;;;46.80;26.90;;;;;;;12.92;100.00;99414.02;107788;1291;22032;-60
2023/12/01 18:19:21;;;;;;;30.50;19.20;;;;;;;12.89;100.00;99419.91;107771;1289;21992;-60
2023/12/01 18:21:46;;;;;;;29.70;18.30;;;;;;;12.87;100.00;99414.90;107716;1291;22464;-60
2023/12/01 18:24:12;;;;;;;30.60;18.90;;;;;;;12.87;100.00;99406.64;107712;1291;22039;-60
2023/12/01 18:26:38;;;;;;;29.50;17.10;;;;;;;12.85;100.00;99399.30;107727;1284;22012;-60
2023/12/01 18:29:07;;;;;;;30.80;17.30;;;;;;;12.82;100.00;99389.20;107685;1291;22170;-61
2023/12/01 18:31:34;;;;;;;40.70;21.70;;;;;;;12.81;100.00;99394.90;107732;1291;21989;-62
2023/12/01 18:34:00;;;;;;;37.90;21.10;;;;;;;12.82;100.00;99403.13;107794;1291;21985;-62
2023/12/01 18:36:26;;;;;;;46.00;27.10;;;;;;;12.78;100.00;99408.38;107744;1291;22456;-61
2023/12/01 18:38:51;;;;;;;34.60;21.40;;;;;;;12.77;100.00;99408.93;107764;1291;21987;-60
2023/12/01 18:41:17;;;;;;;39.60;21.90;;;;;;;12.77;100.00;99396.27;107728;1289;21997;-60
2023/12/01 18:43:43;;;;;;;49.70;25.20;;;;;;;12.76;100.00;99390.52;107722;1287;21995;-63
2023/12/01 18:46:08;;;;;;;43.10;22.40;;;;;;;12.72;100.00;99379.73;107734;1291;21989;-62
2023/12/01 18:48:34;;;;;;;52.60;26.80;;;;;;;12.68;100.00;99368.08;107716;1291;21993;-62
2023/12/01 18:51:00;;;;;;;48.50;26.80;;;;;;;12.73;100.00;99365.61;107688;1291;22453;-60
2023/12/01 18:53:26;;;;;;;37.70;21.60;;;;;;;12.74;100.00;99368.73;107753;1291;22030;-63
2023/12/01 18:55:51;;;;;;;33.80;20.80;;;;;;;12.74;100.00;99363.11;107807;1291;21991;-60
2023/12/01 18:58:17;;;;;;;31.10;18.40;;;;;;;12.74;100.00;99363.29;107802;1291;21988;-62
2023/12/01 19:00:43;;;;;;;27.60;16.00;;;;;;;12.74;100.00;99363.65;107894;1287;21996;-62
2023/12/01 19:03:08;;;;;;;24.70;15.10;;;;;;;12.65;100.00;99360.28;107744;1291;22011;-60
2023/12/01 19:05:34;;;;;;;25.30;15.90;;;;;;;12.60;100.00;99379.27;107808;1291;22035;-62
2023/12/01 19:07:59;;;;;;;25.20;17.30;;;;;;;12.58;100.00;99370.71;107939;1291;21990;-60
2023/12/01 19:10:25;;;;;;;28.40;17.80;;;;;;;12.59;100.00;99370.52;107833;1291;21992;-62
2023/12/01 19:12:51;;;;;;;27.50;18.10;;;;;;;12.59;100.00;99364.91;107863;1289;21989;-60
2023/12/01 19:15:17;;;;;;;26.30;17.20;;;;;;;12.58;100.00;99360.01;107917;1287;21992;-62
2023/12/01 19:17:43;;;;;;;27.60;17.20;;;;;;;12.55;100.00;99374.20;107755;1291;22049;-62
2023/12/01 19:20:09;;;;;;;27.80;17.10;;;;;;;12.51;100.00;99387.02;107913;1291;22184;-61
2023/12/01 19:22:35;;;;;;;28.00;17.40;;;;;;;12.44;100.00;99398.17;107774;1291;22000;-61
2023/12/01 19:25:03;;;;;;;31.50;20.80;;;;;;;12.36;100.00;99388.95;107795;1287;21999;-62
2023/12/01 19:27:29;;;;;;;31.30;20.10;;;;;;;12.36;100.00;99379.44;107764;1291;21988;-62
2023/12/01 19:29:55;;;;;;;34.60;20.90;;;;;;;12.38;100.00;99383.96;107760;1291;23101;-61
2023/12/01 19:32:20;;;;;;;29.30;18.10;;;;;;;12.40;100.00;99390.38;107795;1290;21986;-60
2023/12/01 19:34:46;;;;;;;26.60;16.50;;;;;;;12.42;100.00;99377.83;107839;1290;21991;-59
2023/12/01 19:37:12;;;;;;;28.10;16.60;;;;;;;12.43;100.00;99363.90;107770;1290;22000;-61
2023/12/01 19:39:38;;;;;;;27.80;16.10;;;;;;;12.42;100.00;99364.98;107750;1290;21989;-61
2023/12/01 19:42:03;;;;;;;28.90;19.80;;;;;;;12.37;100.00;99378.54;107776;1289;21985;-61
2023/12/01 19:44:29;;;;;;;31.30;20.20;;;;;;;12.32;100.00;99381.71;107886;1286;22027;-59
2023/12/01 19:46:54;;;;;;;37.70;22.50;;;;;;;12.26;100.00;99377.88;107968;1290;21984;-59
2023/12/01 19:49:20;;;;;;;60.10;27.40;;;;;;;12.21;100.00;99376.63;107983;1286;22452;-60
2023/12/01 19:51:46;;;;;;;77.00;38.00;;;;;;;12.19;100.00;99379.33;107969;1289;23756;-60
2023/12/01 19:54:12;;;;;;;43.70;25.30;;;;;;;12.16;100.00;99389.46;107996;1289;23640;-60
2023/12/01 19:56:38;;;;;;;34.80;21.10;;;;;;;12.11;100.00;99386.99;107813;1290;21992;-62
2023/12/01 19:59:03;;;;;;;146.40;68.80;;;;;;;12.09;100.00;99375.81;107824;1288;21985;-61
2023/12/01 20:01:30;;;;;;;63.40;37.30;;;;;;;12.07;100.00;99378.16;107862;1289;21998;-62
2023/12/01 20:03:55;;;;;;;75.40;39.30;;;;;;;12.04;100.00;99388.63;107985;1290;22021;-61
2023/12/01 20:06:21;;;;;;;46.20;24.50;;;;;;;11.98;100.00;99395.84;107771;1290;21992;-62
2023/12/01 20:08:46;;;;;;;31.80;19.50;;;;;;;11.93;100.00;99397.09;107782;1290;21942;-60
2023/12/01 20:11:12;;;;;;;25.10;15.40;;;;;;;11.88;100.00;99399.53;107864;1289;21986;-61
2023/12/01 20:13:38;;;;;;;34.80;20.60;;;;;;;11.84;100.00;99398.79;107895;1289;21980;-62
2023/12/01 20:16:04;;;;;;;22.90;14.50;;;;;;;11.81;100.00;99394.32;107950;1289;21999;-60
2023/12/01 20:18:30;;;;;;;24.40;15.50;;;;;;;11.79;100.00;99399.10;107850;1289;21996;-63
2023/12/01 20:20:58;;;;;;;32.60;20.20;;;;;;;11.77;100.00;99394.59;107984;1289;21991;-62
2023/12/01 20:23:24;;;;;;;28.20;18.00;;;;;;;11.74;100.00;99398.89;107963;1289;21998;-62
2023/12/01 20:25:50;;;;;;;35.10;19.40;;;;;;;11.70;100.00;99414.33;107987;1289;22454;-63
2023/12/01 20:28:15;;;;;;;38.00;23.10;;;;;;;11.65;100.00;99432.61;108013;1289;22021;-60
2023/12/01 20:30:41;;;;;;;34.60;22.30;;;;;;;11.58;100.00;99435.63;108006;1289;21989;-60
2023/12/01 20:33:08;;;;;;;24.40;17.60;;;;;;;11.55;100.00;99430.42;107994;1287;21989;-61
2023/12/01 20:35:33;;;;;;;19.30;12.80;;;;;;;11.53;100.00;99424.35;108023;1288;22281;-61
2023/12/01 20:37:59;;;;;;;25.30;16.80;;;;;;;11.54;100.00;99419.92;107999;1289;22024;-61
2023/12/01 20:40:25;;;;;;;27.80;18.60;;;;;;;11.54;100.00;99419.06;107985;1289;22000;-62
2023/12/01 20:42:50;;;;;;;23.30;15.80;;;;;;;11.51;100.00;99415.46;107977;1289;21989;-60
2023/12/01 20:45:16;;;;;;;20.80;12.60;;;;;;;11.47;100.00;99421.57;107981;1288;21992;-61
2023/12/01 20:47:42;;;;;;;15.30;10.20;;;;;;;11.39;100.00;99424.09;107985;1289;21989;-62
2023/12/01 20:50:08;;;;;;;27.10;15.90;;;;;;;11.29;100.00;99421.95;107808;1289;21987;-60
2023/12/01 20:52:33;;;;;;;52.80;27.30;;;;;;;11.23;100.00;99421.78;108048;1289;22045;-61
2023/12/01 20:54:59;;;;;;;23.90;13.70;;;;;;;11.20;100.00;99419.23;108039;1289;22014;-62
2023/12/01 20:57:25;;;;;;;19.50;12.10;;;;;;;11.15;100.00;99414.11;108024;1289;21989;-62
2023/12/01 20:59:50;;;;;;;18.80;12.20;;;;;;;11.12;100.00;99399.27;108021;1287;21984;-60
2023/12/01 21:02:16;;;;;;;26.10;14.50;;;;;;;11.12;100.00;99402.41;108026;1289;22001;-63
2023/12/01 21:04:41;;;;;;;31.60;16.90;;;;;;;11.14;100.00;99408.85;107869;1287;22180;-63
2023/12/01 21:07:07;;;;;;;26.90;15.70;;;;;;;11.16;100.00;99408.08;107797;1287;22465;-60
2023/12/01 21:09:33;;;;;;;18.70;10.80;;;;;;;11.19;100.00;99414.53;107857;1290;21997;-63
2023/12/01 21:11:58;;;;;;;15.40;9.50;;;;;;;11.19;100.00;99411.20;107865;1290;21991;-63
2023/12/01 21:14:24;;;;;;;15.60;10.10;;;;;;;11.18;100.00;99411.93;107836;1290;21993;-61
2023/12/01 21:16:50;;;;;;;15.50;10.90;;;;;;;11.17;100.00;99410.35;107912;1290;21984;-61
2023/12/01 21:19:16;;;;;;;16.80;11.00;;;;;;;11.14;100.00;99412.37;107816;1290;21984;-63
2023/12/01 21:21:41;;;;;;;14.30;8.90;;;;;;;11.10;100.00;99410.57;107851;1290;21989;-60
2023/12/01 21:24:07;;;;;;;14.90;9.70;;;;;;;11.06;100.00;99403.81;107924;1290;21994;-60
2023/12/01 21:26:33;;;;;;;19.00;12.20;;;;;;;11.05;100.00;99402.29;107841;1288;21990;-62
2023/12/01 21:28:59;;;;;;;16.70;9.30;;;;;;;11.01;100.00;99400.83;107823;1290;21990;-60
2023/12/01 21:31:24;;;;;;;14.40;9.20;;;;;;;10.97;100.00;99392.70;107852;1290;21988;-60
2023/12/01 21:33:50;;;;;;;19.30;10.40;;;;;;;10.93;100.00;99385.61;107818;1290;21990;-60
2023/12/01 21:36:16;;;;;;;16.60;9.60;;;;;;;10.90;100.00;99389.05;107824;1290;22028;-60
2023/12/01 21:38:41;;;;;;;18.40;10.70;;;;;;;10.87;100.00;99395.77;107798;1290;21989;-62
2023/12/01 21:41:13;;;;;;;17.30;9.60;;;;;;;10.84;100.00;99402.18;107826;1290;21990;-59
2023/12/01 21:43:39;;;;;;;12.50;8.40;;;;;;;10.77;100.00;99402.95;107783;1290;21987;-59
2023/12/01 21:46:05;;;;;;;10.90;7.50;;;;;;;10.68;100.00;99411.06;107837;1290;21996;-59
2023/12/01 21:48:31;;;;;;;11.30;7.80;;;;;;;10.64;100.00;99419.60;107943;1290;22000;-60
2023/12/01 21:50:56;;;;;;;13.70;8.90;;;;;;;10.60;100.00;99416.73;107856;1287;22166;-62
2023/12/01 21:53:22;;;;;;;14.10;8.60;;;;;;;10.55;100.00;99404.95;107814;1287;22095;-59
2023/12/01 21:55:48;;;;;;;13.90;7.30;;;;;;;10.50;100.00;99393.85;107796;1290;22000;-59
2023/12/01 21:58:13;;;;;;;10.80;7.80;;;;;;;10.46;100.00;99385.35;107839;1283;22047;-60
2023/12/01 22:00:39;;;;;;;12.90;8.40;;;;;;;10.45;100.00;99384.33;107820;1290;21988;-62
2023/12/01 22:03:04;;;;;;;12.00;8.30;;;;;;;10.45;100.00;99395.05;107885;1290;21977;-59
2023/12/01 22:05:30;;;;;;;13.70;9.20;;;;;;;10.45;100.00;99399.27;107823;1281;21994;-62
2023/12/01 22:07:56;;;;;;;14.00;9.20;;;;;;;10.45;100.00;99395.05;107801;1290;21989;-60
2023/12/01 22:10:21;;;;;;;14.20;9.40;;;;;;;10.46;100.00;99395.02;107822;1290;22002;-59
2023/12/01 22:12:47;;;;;;;14.70;9.10;;;;;;;10.47;100.00;99399.38;107821;1290;22000;-61
2023/12/01 22:15:13;;;;;;;12.20;8.40;;;;;;;10.42;100.00;99407.05;107822;1290;22034;-62
2023/12/01 22:17:38;;;;;;;13.90;8.00;;;;;;;10.35;100.00;99407.21;107803;1290;22000;-59
2023/12/01 22:20:05;;;;;;;14.40;7.70;;;;;;;10.30;100.00;99409.27;107872;1290;21990;-59
2023/12/01 22:22:30;;;;;;;13.30;7.80;;;;;;;10.28;100.00;99408.61;107953;1290;21986;-62
2023/12/01 22:24:56;;;;;;;11.50;7.60;;;;;;;10.30;100.00;99415.41;107973;1290;21998;-60
2023/12/01 22:27:21;;;;;;;12.70;8.90;;;;;;;10.34;100.00;99415.14;107867;1290;22000;-60
2023/12/01 22:29:47;;;;;;;13.00;9.40;;;;;;;10.37;100.00;99419.08;107829;1288;21988;-62
2023/12/01 22:32:13;;;;;;;15.40;10.20;;;;;;;10.37;100.00;99420.30;107908;1290;21985;-60
2023/12/01 22:34:40;;;;;;;14.50;9.30;;;;;;;10.35;100.00;99419.30;107863;1290;22155;-60
2023/12/01 22:37:06;;;;;;;12.80;9.00;;;;;;;10.34;100.00;99418.30;107853;1290;21987;-60
2023/12/01 22:39:31;;;;;;;13.90;9.10;;;;;;;10.29;100.00;99414.90;107879;1290;21993;-62
2023/12/01 22:41:57;;;;;;;14.80;9.20;;;;;;;10.25;100.00;99416.23;107864;1290;21991;-61
2023/12/01 22:44:23;;;;;;;14.30;9.10;;;;;;;10.21;100.00;99423.86;107808;1290;21994;-60
2023/12/01 22:46:49;;;;;;;14.80;10.10;;;;;;;10.19;100.00;99418.48;107819;1281;21989;-61
2023/12/01 22:49:15;;;;;;;14.70;10.10;;;;;;;10.19;100.00;99410.25;107874;1290;21990;-59
2023/12/01 22:51:41;;;;;;;16.00;10.80;;;;;;;10.19;100.00;99402.55;107841;1290;22056;-61
2023/12/01 22:54:06;;;;;;;17.10;10.90;;;;;;;10.18;100.00;99402.05;107818;1277;22006;-59
2023/12/01 22:56:32;;;;;;;18.70;11.60;;;;;;;10.19;100.00;99395.73;107841;1288;21992;-63
2023/12/01 22:58:58;;;;;;;19.60;11.60;;;;;;;10.16;100.00;99397.19;107856;1290;21989;-59
2023/12/01 23:01:24;;;;;;;18.50;11.90;;;;;;;10.14;100.00;99411.63;107845;1290;22003;-62
2023/12/01 23:03:49;;;;;;;16.10;10.40;;;;;;;10.10;100.00;99411.88;107846;1289;22042;-62
2023/12/01 23:06:15;;;;;;;16.40;11.20;;;;;;;10.09;100.00;99402.62;107859;1290;22046;-60
2023/12/01 23:08:41;;;;;;;19.20;11.50;;;;;;;10.08;100.00;99401.42;107866;1290;21989;-62
2023/12/01 23:11:07;;;;;;;17.90;11.00;;;;;;;10.08;100.00;99404.77;107817;1290;21985;-60
2023/12/01 23:13:33;;;;;;;16.10;10.10;;;;;;;10.07;100.00;99398.30;107887;1290;22003;-62
2023/12/01 23:15:59;;;;;;;15.10;9.70;;;;;;;10.07;100.00;99404.79;107840;1289;21997;-60
2023/12/01 23:18:25;;;;;;;13.60;8.50;;;;;;;10.07;100.00;99405.14;107821;1290;22004;-59
2023/12/01 23:20:50;;;;;;;13.10;8.10;;;;;;;10.07;100.00;99399.52;107845;1290;21997;-59
2023/12/01 23:23:18;;;;;;;14.10;8.20;;;;;;;10.07;100.00;99392.86;107807;1290;21988;-60
2023/12/01 23:25:44;;;;;;;12.40;8.00;;;;;;;10.07;100.00;99389.52;107828;1290;21989;-60
2023/12/01 23:28:10;;;;;;;11.80;8.70;;;;;;;10.08;100.00;99391.26;107896;1290;22255;-61
2023/12/01 23:30:35;;;;;;;15.20;9.40;;;;;;;10.08;100.00;99394.94;107817;1277;21992;-59
2023/12/01 23:33:01;;;;;;;14.80;8.90;;;;;;;10.07;100.00;99388.67;107832;1290;21985;-61
2023/12/01 23:35:27;;;;;;;10.80;7.50;;;;;;;10.07;100.00;99391.30;107881;1290;22022;-60
2023/12/01 23:37:52;;;;;;;14.30;8.20;;;;;;;10.07;100.00;99392.52;107844;1290;21997;-62
2023/12/01 23:40:18;;;;;;;12.50;8.00;;;;;;;10.05;100.00;99390.98;107922;1281;23727;-62
2023/12/01 23:42:43;;;;;;;14.80;7.90;;;;;;;10.05;100.00;99391.16;107792;1290;21990;-62
2023/12/01 23:45:09;;;;;;;12.00;8.60;;;;;;;10.04;100.00;99392.58;107813;1281;21996;-62
2023/12/01 23:47:35;;;;;;;14.60;8.40;;;;;;;10.03;100.00;99398.74;107801;1290;21990;-60
2023/12/01 23:50:00;;;;;;;13.20;8.00;;;;;;;10.01;100.00;99396.71;107875;1290;21989;-60
2023/12/01 23:52:26;;;;;;;14.30;8.80;;;;;;;9.98;100.00;99403.25;107916;1290;21998;-60
2023/12/01 23:54:52;;;;;;;11.70;7.80;;;;;;;9.97;100.00;99411.50;107819;1277;21989;-62
2023/12/01 23:57:17;;;;;;;10.70;7.50;;;;;;;9.96;100.00;99409.61;107844;1289;22461;-62
2023/12/01 23:59:43;;;;;;;12.20;7.40;;;;;;;9.96;100.00;99407.51;107828;1287;22006;-61
